Time;durP1;ratioP1;P1;durP2;ratioP2;P2;SDS_P1;SDS_P2;PMS_P1;PMS_P2;Temp;Humidity;BMP_temperature;BMP_pressure;BME280_temperature;BME280_humidity;BME280_pressure;Samples;Min_cycle;Max_cycle;Signal;HPM_P1;HPM_P2
2021/10/13 00:00:50;;;;;;;;;;;8.80;99.90;;;;;;5064602;28;19913;-79
2021/10/13 00:03:15;;;;;;;;;;;8.70;99.90;;;;;;5068111;28;19917;-79
2021/10/13 00:05:41;;;;;;;;;;;8.70;99.90;;;;;;5073913;28;19913;-78
2021/10/13 00:08:07;;;;;;;;;;;8.70;99.90;;;;;;5070520;28;19917;-78
2021/10/13 00:10:32;;;;;;;;;;;8.70;99.90;;;;;;5057803;28;19912;-78
2021/10/13 00:12:58;;;;;;;;;;;8.70;99.90;;;;;;5059263;28;19912;-79
2021/10/13 00:15:24;;;;;;;;;;;8.70;99.90;;;;;;5056623;28;19935;-79
2021/10/13 00:17:49;;;;;;;;;;;8.60;99.90;;;;;;5059840;28;19916;-79
2021/10/13 00:20:15;;;;;;;;;;;8.70;99.90;;;;;;5063462;28;19913;-78
2021/10/13 00:22:40;;;;;;;;;;;8.70;99.90;;;;;;5071055;28;19921;-79
2021/10/13 00:25:06;;;;;;;;;;;8.70;99.90;;;;;;5059999;28;19931;-78
2021/10/13 00:27:32;;;;;;;;;;;8.70;99.90;;;;;;5067489;28;20015;-79
2021/10/13 00:29:57;;;;;;;;;;;8.70;99.90;;;;;;5070779;28;19917;-78
2021/10/13 00:32:23;;;;;;;;;;;8.60;99.90;;;;;;5064695;28;19923;-79
2021/10/13 00:34:48;;;;;;;;;;;8.60;99.90;;;;;;5070517;28;19935;-79
2021/10/13 00:37:14;;;;;;;;;;;8.50;99.90;;;;;;5056950;28;19925;-79
2021/10/13 00:39:39;;;;;;;;;;;8.50;99.90;;;;;;5065287;28;19998;-80
2021/10/13 00:42:05;;;;;;;;;;;8.50;99.90;;;;;;5072753;28;19912;-79
2021/10/13 00:44:31;;;;;;;;;;;8.40;99.90;;;;;;5077936;28;19916;-79
2021/10/13 00:46:57;;;;;;;;;;;8.40;99.90;;;;;;5075396;28;20275;-79
2021/10/13 00:49:24;;;;;;;;;;;8.50;99.90;;;;;;5068607;28;19919;-79
2021/10/13 00:51:50;;;;;;;;;;;8.50;99.90;;;;;;5056185;28;19912;-79
2021/10/13 00:54:16;;;;;;;;;;;8.60;99.90;;;;;;5063676;28;19913;-78
2021/10/13 00:56:42;;;;;;;;;;;8.60;99.90;;;;;;5058739;28;19917;-79
2021/10/13 00:59:07;;;;;;;;;;;8.60;99.90;;;;;;5056733;28;19916;-79
2021/10/13 01:01:39;;;;;;;;;;;8.60;99.90;;;;;;5056252;28;19920;-78
2021/10/13 01:04:23;;;;;;;;;;;8.70;99.90;;;;;;5070510;28;19920;-78
2021/10/13 01:06:51;;;;;;;;;;;8.70;99.90;;;;;;5071374;28;20365;-79
2021/10/13 01:09:21;;;;;;;;;;;8.70;99.90;;;;;;5058955;28;19916;-78
2021/10/13 01:11:49;;;;;;;;;;;8.80;99.90;;;;;;5071672;28;19918;-79
2021/10/13 01:14:16;;;;;;;;;;;8.80;99.90;;;;;;5070909;28;19962;-79
2021/10/13 01:16:55;;;;;;;;;;;8.80;99.90;;;;;;5061963;28;19913;-79
2021/10/13 01:19:23;;;;;;;;;;;8.80;99.90;;;;;;5064953;28;20011;-78
2021/10/13 01:21:56;;;;;;;;;;;8.90;99.90;;;;;;5060806;28;19913;-79
2021/10/13 01:24:27;;;;;;;;;;;8.80;99.90;;;;;;5059809;28;19917;-78
2021/10/13 01:27:17;;;;;;;;;;;8.90;99.90;;;;;;5079691;28;19916;-78
2021/10/13 01:29:43;;;;;;;;;;;8.90;99.90;;;;;;5060841;28;19917;-79
2021/10/13 01:32:14;;;;;;;;;;;8.70;99.90;;;;;;5070717;28;19935;-79
2021/10/13 01:34:42;;;;;;;;;;;8.70;99.90;;;;;;5059542;28;20304;-79
2021/10/13 01:37:09;;;;;;;;;;;8.60;99.90;;;;;;5060652;28;20003;-79
2021/10/13 01:39:39;;;;;;;;;;;8.50;99.90;;;;;;5072914;28;20377;-79
2021/10/13 01:42:06;;;;;;;;;;;8.50;99.90;;;;;;5068583;28;19958;-79
2021/10/13 01:44:32;;;;;;;;;;;8.40;99.90;;;;;;5062581;28;19947;-79
2021/10/13 01:46:57;;;;;;;;;;;8.40;99.90;;;;;;5062592;28;20292;-79
2021/10/13 01:49:23;;;;;;;;;;;8.30;99.90;;;;;;5074349;28;19909;-80
2021/10/13 01:51:50;;;;;;;;;;;8.40;99.90;;;;;;5058497;28;19919;-79
2021/10/13 01:54:16;;;;;;;;;;;8.40;99.90;;;;;;5057610;28;20304;-79
2021/10/13 01:56:42;;;;;;;;;;;8.50;99.90;;;;;;5057009;28;19920;-79
2021/10/13 01:59:14;;;;;;;;;;;8.50;99.90;;;;;;5065530;28;19958;-79
2021/10/13 02:01:40;;;;;;;;;;;8.50;99.90;;;;;;5067979;28;19912;-79
2021/10/13 02:04:07;;;;;;;;;;;8.70;99.90;;;;;;5055932;28;19952;-79
2021/10/13 02:06:33;;;;;;;;;;;8.70;99.90;;;;;;5055962;28;19912;-79
2021/10/13 02:08:59;;;;;;;;;;;8.60;99.90;;;;;;5055270;28;20338;-79
2021/10/13 02:11:25;;;;;;;;;;;8.70;99.90;;;;;;5066678;28;19980;-79
2021/10/13 02:13:52;;;;;;;;;;;8.70;99.90;;;;;;5059905;28;19921;-77
2021/10/13 02:16:18;;;;;;;;;;;8.60;99.90;;;;;;5065106;28;20280;-79
2021/10/13 02:18:44;;;;;;;;;;;8.60;99.90;;;;;;5064290;28;19917;-79
2021/10/13 02:21:10;;;;;;;;;;;8.60;99.90;;;;;;5069128;28;20200;-79
2021/10/13 02:23:36;;;;;;;;;;;8.60;99.90;;;;;;5064296;28;20398;-79
2021/10/13 02:26:04;;;;;;;;;;;8.60;99.90;;;;;;5068576;28;20035;-79
2021/10/13 02:28:36;;;;;;;;;;;8.50;99.90;;;;;;5068072;28;19919;-79
2021/10/13 02:31:01;;;;;;;;;;;8.50;99.90;;;;;;5061441;28;19928;-79
2021/10/13 02:33:27;;;;;;;;;;;8.50;99.90;;;;;;5075083;28;19917;-79
2021/10/13 02:35:52;;;;;;;;;;;8.40;99.90;;;;;;5067838;28;20319;-78
2021/10/13 02:38:18;;;;;;;;;;;8.40;99.90;;;;;;5061675;28;19924;-79
2021/10/13 02:40:44;;;;;;;;;;;8.30;99.90;;;;;;5055063;28;20299;-79
2021/10/13 02:43:10;;;;;;;;;;;8.30;99.90;;;;;;5061008;28;19917;-79
2021/10/13 02:45:40;;;;;;;;;;;8.30;99.90;;;;;;5063884;28;19987;-79
2021/10/13 02:48:11;;;;;;;;;;;8.30;99.90;;;;;;5069114;28;19920;-78
2021/10/13 02:50:40;;;;;;;;;;;8.20;99.90;;;;;;5057339;28;20303;-79
2021/10/13 02:53:14;;;;;;;;;;;8.30;99.90;;;;;;5057234;28;19920;-79
2021/10/13 02:55:46;;;;;;;;;;;8.30;99.90;;;;;;5059036;28;20012;-79
2021/10/13 02:58:20;;;;;;;;;;;8.30;99.90;;;;;;5065539;28;19928;-79
2021/10/13 03:00:47;;;;;;;;;;;8.20;99.90;;;;;;5056421;28;20300;-79
2021/10/13 03:03:16;;;;;;;;;;;8.20;99.90;;;;;;5056454;28;19916;-79
2021/10/13 03:05:42;;;;;;;;;;;8.20;99.90;;;;;;5057887;28;19948;-79
2021/10/13 03:08:08;;;;;;;;;;;8.10;99.90;;;;;;5063685;28;20315;-79
2021/10/13 03:10:34;;;;;;;;;;;8.10;99.90;;;;;;5071101;28;20235;-78
2021/10/13 03:13:01;;;;;;;;;;;8.10;99.90;;;;;;5055045;28;19913;-78
2021/10/13 03:15:28;;;;;;;;;;;8.10;99.90;;;;;;5073454;28;19917;-78
2021/10/13 03:17:55;;;;;;;;;;;8.10;99.90;;;;;;5061820;28;20215;-78
2021/10/13 03:20:21;;;;;;;;;;;8.10;99.90;;;;;;5063809;28;19916;-78
2021/10/13 03:22:48;;;;;;;;;;;8.10;99.90;;;;;;5067654;28;20016;-79
2021/10/13 03:25:24;;;;;;;;;;;8.10;99.90;;;;;;5057162;28;19955;-78
2021/10/13 03:27:49;;;;;;;;;;;8.00;99.90;;;;;;5068989;28;19936;-78
2021/10/13 03:30:15;;;;;;;;;;;7.90;99.90;;;;;;5074548;28;20216;-79
2021/10/13 03:32:45;;;;;;;;;;;7.70;99.90;;;;;;5063876;28;19956;-78
2021/10/13 03:35:18;;;;;;;;;;;7.60;99.90;;;;;;5060442;28;19912;-78
2021/10/13 03:37:44;;;;;;;;;;;7.60;99.90;;;;;;5058932;28;19920;-79
2021/10/13 03:40:10;;;;;;;;;;;7.70;99.90;;;;;;5061362;28;20392;-79
2021/10/13 03:42:35;;;;;;;;;;;7.70;99.90;;;;;;5073655;28;19913;-78
2021/10/13 03:45:01;;;;;;;;;;;7.80;99.90;;;;;;5056372;28;19923;-78
2021/10/13 03:47:27;;;;;;;;;;;7.80;99.90;;;;;;5063820;28;19969;-78
2021/10/13 03:49:52;;;;;;;;;;;7.80;99.90;;;;;;5065363;28;19913;-79
2021/10/13 03:52:18;;;;;;;;;;;7.80;99.90;;;;;;5066668;28;19917;-79
2021/10/13 03:54:43;;;;;;;;;;;7.80;99.90;;;;;;5057177;28;20307;-78
2021/10/13 03:57:09;;;;;;;;;;;7.70;99.90;;;;;;5069803;28;19920;-79
2021/10/13 03:59:36;;;;;;;;;;;7.80;99.90;;;;;;5069294;28;20011;-79
2021/10/13 04:02:01;;;;;;;;;;;7.80;99.90;;;;;;5080030;28;19928;-79
2021/10/13 04:04:27;;;;;;;;;;;7.90;99.90;;;;;;5073335;28;19912;-78
2021/10/13 04:06:53;;;;;;;;;;;8.00;99.90;;;;;;5078728;28;19943;-79
2021/10/13 04:09:18;;;;;;;;;;;8.00;99.90;;;;;;5059478;28;20007;-79
2021/10/13 04:11:44;;;;;;;;;;;7.90;99.90;;;;;;5066145;28;19921;-78
2021/10/13 04:14:09;;;;;;;;;;;7.90;99.90;;;;;;5066092;28;19948;-78
2021/10/13 04:16:35;;;;;;;;;;;7.80;99.90;;;;;;5071487;28;19966;-79
2021/10/13 04:19:00;;;;;;;;;;;7.80;99.90;;;;;;5055295;28;19970;-78
2021/10/13 04:21:26;;;;;;;;;;;7.80;99.90;;;;;;5065435;28;19923;-79
2021/10/13 04:23:52;;;;;;;;;;;7.80;99.90;;;;;;5063674;28;19917;-79
2021/10/13 04:26:17;;;;;;;;;;;7.80;99.90;;;;;;5058406;28;20326;-79
2021/10/13 04:28:43;;;;;;;;;;;7.70;99.90;;;;;;5066215;28;19916;-79
2021/10/13 04:31:10;;;;;;;;;;;7.70;99.90;;;;;;5072465;28;20631;-79
2021/10/13 04:33:36;;;;;;;;;;;7.80;99.90;;;;;;5061386;28;19939;-79
2021/10/13 04:36:01;;;;;;;;;;;7.80;99.90;;;;;;5065341;28;20034;-79
2021/10/13 04:38:27;;;;;;;;;;;7.80;99.90;;;;;;5061236;28;19920;-79
2021/10/13 04:40:52;;;;;;;;;;;7.80;99.90;;;;;;5056432;28;19919;-79
2021/10/13 04:43:18;;;;;;;;;;;7.90;99.90;;;;;;5058200;28;19928;-79
2021/10/13 04:45:43;;;;;;;;;;;7.90;99.90;;;;;;5066662;28;19920;-79
2021/10/13 04:48:09;;;;;;;;;;;8.00;99.90;;;;;;5072244;28;20331;-78
2021/10/13 04:50:34;;;;;;;;;;;8.10;99.90;;;;;;5073231;28;19951;-79
2021/10/13 04:53:00;;;;;;;;;;;8.10;99.90;;;;;;5072262;28;19954;-79
2021/10/13 04:55:26;;;;;;;;;;;8.20;99.90;;;;;;5070363;28;19920;-79
2021/10/13 04:57:51;;;;;;;;;;;8.20;99.90;;;;;;5071313;28;20509;-79
2021/10/13 05:00:17;;;;;;;;;;;8.20;99.90;;;;;;5070543;28;19969;-79
2021/10/13 05:02:42;;;;;;;;;;;8.30;99.90;;;;;;5069928;28;19926;-79
2021/10/13 05:05:08;;;;;;;;;;;8.40;99.90;;;;;;5072062;28;19913;-79
2021/10/13 05:07:34;;;;;;;;;;;8.40;99.90;;;;;;5069673;28;19912;-79
2021/10/13 05:09:59;;;;;;;;;;;8.40;99.90;;;;;;5071557;28;19913;-79
2021/10/13 05:12:25;;;;;;;;;;;8.30;99.90;;;;;;5071078;28;19917;-79
2021/10/13 05:14:50;;;;;;;;;;;8.30;99.90;;;;;;5072320;28;19927;-79
2021/10/13 05:17:16;;;;;;;;;;;8.20;99.90;;;;;;5077320;28;19966;-79
2021/10/13 05:19:41;;;;;;;;;;;8.20;99.90;;;;;;5078895;28;19927;-79
2021/10/13 05:22:07;;;;;;;;;;;8.20;99.90;;;;;;5072939;28;19922;-79
2021/10/13 05:24:33;;;;;;;;;;;8.30;99.90;;;;;;5072759;28;19982;-78
2021/10/13 05:26:58;;;;;;;;;;;8.30;99.90;;;;;;5077154;28;19970;-79
2021/10/13 05:29:24;;;;;;;;;;;8.30;99.90;;;;;;5073169;28;19943;-79
2021/10/13 05:31:50;;;;;;;;;;;8.20;99.90;;;;;;5068897;28;19920;-79
2021/10/13 05:34:15;;;;;;;;;;;8.30;99.90;;;;;;5070276;28;19943;-79
2021/10/13 05:36:41;;;;;;;;;;;8.20;99.90;;;;;;5081566;28;19929;-79
2021/10/13 05:39:07;;;;;;;;;;;8.10;99.90;;;;;;5082870;28;19920;-79
2021/10/13 05:41:32;;;;;;;;;;;8.10;99.90;;;;;;5070302;28;19971;-79
2021/10/13 05:43:58;;;;;;;;;;;8.10;99.90;;;;;;5073564;28;19920;-79
2021/10/13 05:46:23;;;;;;;;;;;8.10;99.90;;;;;;5071309;28;19913;-79
2021/10/13 05:48:49;;;;;;;;;;;8.10;99.90;;;;;;5067916;28;20001;-79
2021/10/13 05:51:14;;;;;;;;;;;8.00;99.90;;;;;;5065842;28;19913;-79
2021/10/13 05:53:40;;;;;;;;;;;8.00;99.90;;;;;;5064185;28;20312;-79
2021/10/13 05:56:06;;;;;;;;;;;8.00;99.90;;;;;;5068155;28;19984;-79
2021/10/13 05:58:31;;;;;;;;;;;8.00;99.90;;;;;;5067345;28;19920;-79
2021/10/13 06:00:57;;;;;;;;;;;8.00;99.90;;;;;;5070078;28;19916;-78
2021/10/13 06:03:23;;;;;;;;;;;8.00;99.90;;;;;;5084863;28;20004;-79
2021/10/13 06:05:48;;;;;;;;;;;8.00;99.90;;;;;;5066153;28;19998;-79
2021/10/13 06:08:14;;;;;;;;;;;8.00;99.90;;;;;;5063229;28;19916;-79
2021/10/13 06:10:40;;;;;;;;;;;8.00;99.90;;;;;;5069089;28;19912;-79
2021/10/13 06:13:05;;;;;;;;;;;8.10;99.90;;;;;;5068805;28;20303;-79
2021/10/13 06:15:37;;;;;;;;;;;8.10;99.90;;;;;;5067872;28;19916;-79
2021/10/13 06:18:11;;;;;;;;;;;8.10;99.90;;;;;;5068592;28;19924;-79
2021/10/13 06:20:37;;;;;;;;;;;8.10;99.90;;;;;;5070175;28;19939;-79
2021/10/13 06:23:03;;;;;;;;;;;8.10;99.90;;;;;;5069563;28;20288;-79
2021/10/13 06:25:29;;;;;;;;;;;8.10;99.90;;;;;;5081862;28;19944;-79
2021/10/13 06:27:54;;;;;;;;;;;8.00;99.90;;;;;;5066537;28;19917;-79
2021/10/13 06:30:20;;;;;;;;;;;8.00;99.90;;;;;;5070316;28;20323;-79
2021/10/13 06:32:47;;;;;;;;;;;7.90;99.90;;;;;;5070332;28;19917;-79
2021/10/13 06:35:12;;;;;;;;;;;7.90;99.90;;;;;;5066461;28;19917;-78
2021/10/13 06:37:38;;;;;;;;;;;7.90;99.90;;;;;;5065545;28;20311;-79
2021/10/13 06:40:04;;;;;;;;;;;7.90;99.90;;;;;;5070377;28;19916;-79
2021/10/13 06:42:29;;;;;;;;;;;7.90;99.90;;;;;;5056259;28;19913;-79
2021/10/13 06:44:55;;;;;;;;;;;7.90;99.90;;;;;;5061096;28;19991;-79
2021/10/13 06:47:20;;;;;;;;;;;8.00;99.90;;;;;;5082400;28;19934;-79
2021/10/13 06:49:46;;;;;;;;;;;8.10;99.90;;;;;;5060473;28;19980;-79
2021/10/13 06:52:12;;;;;;;;;;;8.20;99.90;;;;;;5067485;28;19917;-80
2021/10/13 06:54:37;;;;;;;;;;;8.30;99.90;;;;;;5073606;28;20315;-79
2021/10/13 06:57:03;;;;;;;;;;;8.40;99.90;;;;;;5068633;28;19917;-79
2021/10/13 06:59:28;;;;;;;;;;;8.40;99.90;;;;;;5064506;28;20028;-79
2021/10/13 07:01:54;;;;;;;;;;;8.50;99.90;;;;;;5060922;28;20254;-80
2021/10/13 07:04:19;;;;;;;;;;;8.50;99.90;;;;;;5075431;28;20007;-79
2021/10/13 07:06:45;;;;;;;;;;;8.60;99.90;;;;;;5065405;28;19912;-79
2021/10/13 07:09:10;;;;;;;;;;;8.60;99.90;;;;;;5060776;28;19913;-79
2021/10/13 07:11:36;;;;;;;;;;;8.60;99.90;;;;;;5066685;28;19923;-78
2021/10/13 07:14:06;;;;;;;;;;;8.60;99.90;;;;;;5063792;28;19917;-79
2021/10/13 07:16:32;;;;;;;;;;;8.60;99.90;;;;;;5062792;28;19921;-78
2021/10/13 07:18:57;;;;;;;;;;;8.70;99.90;;;;;;5063262;28;19939;-79
2021/10/13 07:21:23;;;;;;;;;;;8.80;99.90;;;;;;5063165;28;19924;-78
2021/10/13 07:23:49;;;;;;;;;;;8.90;99.90;;;;;;5065351;28;19924;-79
2021/10/13 07:26:14;;;;;;;;;;;9.10;99.90;;;;;;5063292;28;20322;-78
2021/10/13 07:28:41;;;;;;;;;;;9.30;99.90;;;;;;5060934;28;20317;-79
2021/10/13 07:31:07;;;;;;;;;;;9.50;99.90;;;;;;5075603;28;19954;-79
2021/10/13 07:33:33;;;;;;;;;;;9.80;99.90;;;;;;5064292;28;19913;-79
2021/10/13 07:35:59;;;;;;;;;;;10.50;99.90;;;;;;5061229;28;20002;-79
2021/10/13 07:38:24;;;;;;;;;;;11.40;99.90;;;;;;5060863;28;19966;-79
2021/10/13 07:40:50;;;;;;;;;;;12.20;99.90;;;;;;5068107;28;19916;-79
2021/10/13 07:43:16;;;;;;;;;;;13.00;99.90;;;;;;5063319;28;20311;-79
2021/10/13 07:45:43;;;;;;;;;;;13.50;99.90;;;;;;5057549;28;19916;-79
2021/10/13 07:48:09;;;;;;;;;;;13.80;99.90;;;;;;5072414;28;19917;-78
2021/10/13 07:50:35;;;;;;;;;;;13.80;99.90;;;;;;5062013;28;19913;-79
2021/10/13 07:53:00;;;;;;;;;;;14.30;99.90;;;;;;5061485;28;20192;-78
2021/10/13 07:55:26;;;;;;;;;;;14.80;99.90;;;;;;5063798;28;20258;-79
2021/10/13 07:57:52;;;;;;;;;;;15.40;99.90;;;;;;5060172;28;19916;-78
2021/10/13 08:00:19;;;;;;;;;;;15.70;99.90;;;;;;5061447;28;19916;-78
2021/10/13 08:02:46;;;;;;;;;;;16.00;99.90;;;;;;5068302;28;20429;-78
2021/10/13 08:05:11;;;;;;;;;;;16.00;99.90;;;;;;5073648;28;19917;-78
2021/10/13 08:07:37;;;;;;;;;;;15.60;99.90;;;;;;5057023;28;19962;-79
2021/10/13 08:10:03;;;;;;;;;;;15.60;99.90;;;;;;5067427;28;19941;-79
2021/10/13 08:12:28;;;;;;;;;;;15.80;99.90;;;;;;5068031;28;20146;-78
2021/10/13 08:14:54;;;;;;;;;;;16.10;99.90;;;;;;5065772;28;20608;-79
2021/10/13 08:17:20;;;;;;;;;;;16.50;99.90;;;;;;5063037;28;19917;-78
2021/10/13 08:19:45;;;;;;;;;;;16.70;99.90;;;;;;5070166;28;20333;-79
2021/10/13 08:22:11;;;;;;;;;;;16.60;99.90;;;;;;5070564;28;19916;-78
2021/10/13 08:24:36;;;;;;;;;;;16.70;99.90;;;;;;5069821;28;20346;-79
2021/10/13 08:27:02;;;;;;;;;;;16.30;99.90;;;;;;5081819;28;20058;-79
2021/10/13 08:29:28;;;;;;;;;;;15.80;99.90;;;;;;5069752;28;19923;-79
2021/10/13 08:31:54;;;;;;;;;;;15.30;99.90;;;;;;5067328;28;19919;-79
2021/10/13 08:34:19;;;;;;;;;;;15.00;99.90;;;;;;5072637;28;19942;-79
2021/10/13 08:36:46;;;;;;;;;;;14.90;99.90;;;;;;5089107;28;19928;-78
2021/10/13 08:39:11;;;;;;;;;;;14.70;99.90;;;;;;5071998;28;19973;-78
2021/10/13 08:41:37;;;;;;;;;;;14.60;99.90;;;;;;5075335;28;19920;-79
2021/10/13 08:44:03;;;;;;;;;;;14.50;99.90;;;;;;5070477;28;19985;-78
2021/10/13 08:46:29;;;;;;;;;;;14.40;99.90;;;;;;5071358;28;19912;-78
2021/10/13 08:48:54;;;;;;;;;;;14.40;99.90;;;;;;5071924;28;19918;-79
2021/10/13 08:51:20;;;;;;;;;;;14.30;99.90;;;;;;5068652;28;19943;-79
2021/10/13 08:53:46;;;;;;;;;;;14.20;99.90;;;;;;5071170;28;20995;-79
2021/10/13 08:56:12;;;;;;;;;;;14.10;99.90;;;;;;5069733;28;19924;-78
2021/10/13 08:58:41;;;;;;;;;;;14.10;99.90;;;;;;5078329;28;20025;-79
2021/10/13 09:01:08;;;;;;;;;;;13.90;99.90;;;;;;5073541;28;20308;-79
2021/10/13 09:03:36;;;;;;;;;;;13.90;99.90;;;;;;5066243;28;19916;-79
2021/10/13 09:06:12;;;;;;;;;;;13.90;99.90;;;;;;5070007;28;19965;-79
2021/10/13 09:08:57;;;;;;;;;;;13.90;99.90;;;;;;5086002;28;20223;-79
2021/10/13 09:11:33;;;;;;;;;;;13.90;99.90;;;;;;5070453;28;19916;-80
2021/10/13 09:14:05;;;;;;;;;;;13.90;99.90;;;;;;5070961;28;19979;-79
2021/10/13 09:16:30;;;;;;;;;;;13.60;99.90;;;;;;5073000;28;19916;-78
2021/10/13 09:18:59;;;;;;;;;;;13.50;99.90;;;;;;5075051;28;19921;-78
2021/10/13 09:21:43;;;;;;;;;;;13.70;99.90;;;;;;5073799;28;19912;-80
2021/10/13 09:24:09;;;;;;;;;;;13.80;99.90;;;;;;5071237;28;19916;-80
2021/10/13 09:26:35;;;;;;;;;;;14.00;99.90;;;;;;5071910;28;20284;-81
2021/10/13 09:29:00;;;;;;;;;;;14.20;99.90;;;;;;5070107;28;19916;-81
2021/10/13 09:31:28;;;;;;;;;;;14.40;99.90;;;;;;5075864;28;20407;-80
2021/10/13 09:33:55;;;;;;;;;;;14.80;99.90;;;;;;5069921;28;19912;-80
2021/10/13 09:36:20;;;;;;;;;;;14.70;99.90;;;;;;5068688;28;19928;-80
2021/10/13 09:38:46;;;;;;;;;;;14.80;99.90;;;;;;5072128;28;20112;-80
2021/10/13 09:41:14;;;;;;;;;;;14.50;99.90;;;;;;5066826;28;20139;-81
2021/10/13 09:43:40;;;;;;;;;;;14.10;99.90;;;;;;5073369;28;19913;-80
2021/10/13 09:46:10;;;;;;;;;;;14.00;99.90;;;;;;5067217;28;19913;-83
2021/10/13 09:48:37;;;;;;;;;;;13.80;99.90;;;;;;5070121;28;19916;-80
2021/10/13 09:51:14;;;;;;;;;;;13.60;99.90;;;;;;5070349;28;19962;-80
2021/10/13 09:53:40;;;;;;;;;;;13.60;99.90;;;;;;5064572;28;20345;-80
2021/10/13 09:56:05;;;;;;;;;;;13.60;99.90;;;;;;5069439;28;19913;-81
2021/10/13 09:58:34;;;;;;;;;;;13.60;99.90;;;;;;5069105;28;20024;-79
2021/10/13 10:01:07;;;;;;;;;;;13.50;99.90;;;;;;5086134;28;19913;-81
2021/10/13 10:03:34;;;;;;;;;;;13.40;99.90;;;;;;5086742;28;19956;-82
2021/10/13 10:06:00;;;;;;;;;;;13.30;99.90;;;;;;5070354;28;19912;-81
2021/10/13 10:08:25;;;;;;;;;;;13.30;99.90;;;;;;5071563;28;20489;-82
2021/10/13 10:11:05;;;;;;;;;;;13.30;99.90;;;;;;5084706;28;19917;-84
2021/10/13 10:13:34;;;;;;;;;;;13.40;99.90;;;;;;5058270;28;19919;-81
2021/10/13 10:15:59;;;;;;;;;;;13.60;99.90;;;;;;5061064;28;19959;-83
2021/10/13 10:18:32;;;;;;;;;;;13.60;99.90;;;;;;5059831;28;19917;-84
2021/10/13 10:21:16;;;;;;;;;;;13.60;99.90;;;;;;5071043;28;19923;-85
2021/10/13 10:23:42;;;;;;;;;;;13.60;99.90;;;;;;5062858;28;19921;-77
2021/10/13 10:26:29;;;;;;;;;;;13.00;99.90;;;;;;5068149;28;19920;-80
2021/10/13 10:28:57;;;;;;;;;;;12.60;99.90;;;;;;5074898;28;19938;-87
2021/10/13 10:31:29;;;;;;;;;;;12.30;99.90;;;;;;5075995;28;19916;-85
2021/10/13 10:34:03;;;;;;;;;;;12.20;99.90;;;;;;5074605;28;20003;-84
2021/10/13 10:36:31;;;;;;;;;;;12.20;99.90;;;;;;5073786;28;19920;-83
2021/10/13 10:38:56;;;;;;;;;;;12.20;99.90;;;;;;5075293;28;19920;-84
2021/10/13 10:41:37;;;;;;;;;;;12.20;99.90;;;;;;5076539;28;19923;-83
2021/10/13 10:44:21;;;;;;;;;;;12.30;99.90;;;;;;5072634;28;19919;-87
2021/10/13 10:46:59;;;;;;;;;;;12.40;99.90;;;;;;5075418;28;19916;-85
2021/10/13 10:49:43;;;;;;;;;;;12.50;99.90;;;;;;5088842;28;19932;-84
2021/10/13 10:52:09;;;;;;;;;;;12.70;99.90;;;;;;5063044;28;19913;-82
2021/10/13 10:54:34;;;;;;;;;;;12.80;99.90;;;;;;5067993;28;19912;-82
2021/10/13 10:57:00;;;;;;;;;;;12.90;99.90;;;;;;5089541;28;20215;-85
2021/10/13 10:59:38;;;;;;;;;;;13.20;99.90;;;;;;5073185;28;19928;-82
2021/10/13 11:02:05;;;;;;;;;;;13.20;99.90;;;;;;5068611;28;19958;-82
2021/10/13 11:04:31;;;;;;;;;;;13.50;99.90;;;;;;5071689;28;19942;-81
2021/10/13 11:06:56;;;;;;;;;;;13.40;99.90;;;;;;5080625;28;20544;-83
2021/10/13 11:09:23;;;;;;;;;;;13.50;99.90;;;;;;5076796;28;19917;-79
2021/10/13 11:11:49;;;;;;;;;;;13.60;99.90;;;;;;5072058;28;19958;-83
2021/10/13 11:14:23;;;;;;;;;;;13.60;99.90;;;;;;5071874;28;19927;-84
2021/10/13 11:16:57;;;;;;;;;;;13.60;99.90;;;;;;5074497;28;19927;-81
2021/10/13 11:19:32;;;;;;;;;;;13.70;99.90;;;;;;5072678;28;20010;-82
2021/10/13 11:22:03;;;;;;;;;;;13.80;99.90;;;;;;5074083;28;19998;-82
2021/10/13 11:24:29;;;;;;;;;;;13.90;99.90;;;;;;5068920;28;19912;-81
2021/10/13 11:26:55;;;;;;;;;;;14.00;99.90;;;;;;5073575;28;19919;-82
2021/10/13 11:29:25;;;;;;;;;;;13.90;99.90;;;;;;5074672;28;19966;-84
2021/10/13 11:32:10;;;;;;;;;;;13.70;99.90;;;;;;5073392;28;19912;-81
2021/10/13 11:34:36;;;;;;;;;;;13.60;99.90;;;;;;5070786;28;19917;-83
2021/10/13 11:37:02;;;;;;;;;;;13.50;99.90;;;;;;5077149;28;20250;-83
2021/10/13 11:39:29;;;;;;;;;;;13.30;99.90;;;;;;5081506;28;19924;-85
2021/10/13 11:41:55;;;;;;;;;;;13.10;99.90;;;;;;5080516;28;20011;-85
2021/10/13 11:44:23;;;;;;;;;;;13.00;99.90;;;;;;5090272;28;19939;-86
2021/10/13 11:47:07;;;;;;;;;;;13.00;99.90;;;;;;5065077;28;19917;-84
2021/10/13 11:49:52;;;;;;;;;;;13.00;99.90;;;;;;5069524;28;19966;-86
2021/10/13 11:52:17;;;;;;;;;;;12.90;99.90;;;;;;5071321;28;19920;-84
2021/10/13 11:54:43;;;;;;;;;;;12.90;99.90;;;;;;5064347;28;20299;-82
2021/10/13 11:57:09;;;;;;;;;;;12.80;99.90;;;;;;5073302;28;20319;-80
2021/10/13 11:59:35;;;;;;;;;;;12.90;99.90;;;;;;5073356;28;20325;-85
2021/10/13 12:02:14;;;;;;;;;;;12.80;99.90;;;;;;5064933;28;19974;-85
2021/10/13 12:04:47;;;;;;;;;;;12.80;99.90;;;;;;5068085;28;19912;-83
2021/10/13 12:07:16;;;;;;;;;;;12.80;99.90;;;;;;5065473;28;19913;-82
2021/10/13 12:09:55;;;;;;;;;;;12.80;99.90;;;;;;5056296;28;19920;-80
2021/10/13 12:12:21;;;;;;;;;;;12.90;99.90;;;;;;5069424;28;19939;-85
2021/10/13 12:14:47;;;;;;;;;;;12.90;99.90;;;;;;5066210;28;20311;-84
2021/10/13 12:17:30;;;;;;;;;;;12.90;99.90;;;;;;5066797;28;19944;-81
2021/10/13 12:19:56;;;;;;;;;;;13.00;99.90;;;;;;5055842;28;19962;-82
2021/10/13 12:22:22;;;;;;;;;;;13.10;99.90;;;;;;5059118;28;19921;-82
2021/10/13 12:24:47;;;;;;;;;;;13.20;99.90;;;;;;5066364;28;19919;-84
2021/10/13 12:27:24;;;;;;;;;;;13.20;99.90;;;;;;5056180;28;19912;-82
2021/10/13 12:29:49;;;;;;;;;;;13.20;99.90;;;;;;5069865;28;19930;-83
2021/10/13 12:32:19;;;;;;;;;;;13.30;99.90;;;;;;5072557;28;20057;-82
2021/10/13 12:34:44;;;;;;;;;;;13.50;99.90;;;;;;5070444;28;19912;-78
2021/10/13 12:37:10;;;;;;;;;;;13.70;99.90;;;;;;5060752;28;20342;-85
2021/10/13 12:39:35;;;;;;;;;;;13.60;99.90;;;;;;5071813;28;19923;-86
2021/10/13 12:42:09;;;;;;;;;;;13.60;99.90;;;;;;5057874;28;19921;-83
2021/10/13 12:44:36;;;;;;;;;;;13.50;99.90;;;;;;5061868;28;19913;-84
2021/10/13 12:47:18;;;;;;;;;;;13.40;99.90;;;;;;5056261;28;19974;-79
2021/10/13 12:49:47;;;;;;;;;;;13.30;99.90;;;;;;5067462;28;19919;-81
2021/10/13 12:52:19;;;;;;;;;;;13.20;99.90;;;;;;5066038;28;20267;-82
2021/10/13 12:54:46;;;;;;;;;;;13.10;99.90;;;;;;5065967;28;19966;-85
2021/10/13 12:57:13;;;;;;;;;;;13.10;99.90;;;;;;5070800;28;20235;-87
2021/10/13 12:59:39;;;;;;;;;;;13.10;99.90;;;;;;5072399;28;20003;-84
2021/10/13 13:02:05;;;;;;;;;;;13.10;99.90;;;;;;5062092;28;19970;-80
2021/10/13 13:04:31;;;;;;;;;;;13.10;99.90;;;;;;5060238;28;19967;-81
2021/10/13 13:06:57;;;;;;;;;;;13.00;99.90;;;;;;5055794;28;19917;-83
2021/10/13 13:09:22;;;;;;;;;;;13.00;99.90;;;;;;5062919;28;19996;-80
2021/10/13 13:11:48;;;;;;;;;;;13.00;99.90;;;;;;5056998;28;19916;-81
2021/10/13 13:14:14;;;;;;;;;;;13.10;99.90;;;;;;5056274;28;19966;-82
2021/10/13 13:16:41;;;;;;;;;;;13.10;99.90;;;;;;5070844;28;20281;-83
2021/10/13 13:19:07;;;;;;;;;;;13.20;99.90;;;;;;5064121;28;19920;-79
2021/10/13 13:21:32;;;;;;;;;;;13.20;99.90;;;;;;5071572;28;20258;-83
2021/10/13 13:23:58;;;;;;;;;;;13.30;99.90;;;;;;5061918;28;19916;-83
2021/10/13 13:26:23;;;;;;;;;;;13.50;99.90;;;;;;5064305;28;19920;-82
2021/10/13 13:28:49;;;;;;;;;;;13.50;99.90;;;;;;5068051;28;19947;-82
2021/10/13 13:31:15;;;;;;;;;;;13.60;99.90;;;;;;5060606;28;19982;-80
2021/10/13 13:33:41;;;;;;;;;;;13.60;99.90;;;;;;5059572;28;20003;-82
2021/10/13 13:36:09;;;;;;;;;;;13.70;99.90;;;;;;5053899;28;19925;-80
2021/10/13 13:38:34;;;;;;;;;;;13.80;99.90;;;;;;5060099;28;19927;-78
2021/10/13 13:41:00;;;;;;;;;;;13.90;99.90;;;;;;5056598;28;19913;-79
2021/10/13 13:43:26;;;;;;;;;;;14.10;99.90;;;;;;5067263;28;20223;-82
2021/10/13 13:45:51;;;;;;;;;;;14.20;99.90;;;;;;5077648;28;20262;-79
2021/10/13 13:48:17;;;;;;;;;;;14.20;99.90;;;;;;5075239;28;19994;-79
2021/10/13 13:50:42;;;;;;;;;;;14.20;99.90;;;;;;5056479;28;19912;-75
2021/10/13 13:53:08;;;;;;;;;;;14.10;99.90;;;;;;5062281;28;19912;-79
2021/10/13 13:55:37;;;;;;;;;;;14.10;99.90;;;;;;5069160;28;19932;-80
2021/10/13 13:58:03;;;;;;;;;;;14.00;99.90;;;;;;5063682;28;20291;-83
2021/10/13 14:00:28;;;;;;;;;;;13.80;99.90;;;;;;5069695;28;19923;-81
2021/10/13 14:02:54;;;;;;;;;;;13.80;99.90;;;;;;5069646;28;19920;-83
2021/10/13 14:05:19;;;;;;;;;;;13.70;99.90;;;;;;5066013;28;19920;-82
2021/10/13 14:07:45;;;;;;;;;;;13.60;99.90;;;;;;5068182;28;19920;-81
2021/10/13 14:10:11;;;;;;;;;;;13.40;99.90;;;;;;5067308;28;19913;-79
2021/10/13 14:12:37;;;;;;;;;;;13.50;99.90;;;;;;5068392;28;19916;-77
2021/10/13 14:15:03;;;;;;;;;;;13.50;99.90;;;;;;5070293;28;19916;-80
2021/10/13 14:17:29;;;;;;;;;;;13.60;99.90;;;;;;5078939;28;19923;-78
2021/10/13 14:19:54;;;;;;;;;;;13.60;99.90;;;;;;5069818;28;19924;-81
2021/10/13 14:22:20;;;;;;;;;;;13.60;99.90;;;;;;5068954;28;20007;-79
2021/10/13 14:24:46;;;;;;;;;;;13.60;99.90;;;;;;5072227;28;20066;-79